EGNM METAR and TAF | Updated Today

EGNM METAR

Leeds Bradford Airport

Observation time: 16 min. ago

EGNM 061950Z 24005KT CAVOK 03/00 Q1037

Need help? Read our tutorial on how to read METARs or read the parsed version below.

Leeds Bradford Airport (EGNM) METAR

  • Weather conditions on Mon, 06 Feb 2023 19:50:00 +0000 (16 min. ago):
  • Present conditions: Dry
  • Clouds: Clear skies
  • Visibility: Greater than 10 km
  • Wind: 240 degrees at 5 knots
  • Temperature: 3 celsius
  • Dew point: 0 celsius
  • Pressure: 1037 millibars
  • Remarks: None


Useful to know...

EGNM TAF

Leeds Bradford Airport

TAF EGNM 061655Z 0618/0718 27005KT CAVOK PROB30 TEMPO 0618/0711 6000 BECMG 0622/0701 BKN035
Observation time: 3:11 hr. ago
Need help? Read our tutorial on how to read TAFs or read the parsed version below.

Parsed version of TAF for Leeds Bradford Airport (EGNM)

  • From 06 February at 18:00 UTC, to day 07 of the month at 18:00 UTC
  • Visibility: Greater than 10 km
  • Wind: 270 degrees at 5
  • Expected to arise temporarily, from 06 February at 18:00 UTC, to day 07 of the month at 11:00 UTC
    Probability of 30%
  • Visibility: 6000 meters
  • Expected to arise soon, from 06 February at 22:00 UTC, to day 07 of the month at 01:00 UTC
  • Clouds: Broken sky at 1067 meters